Мир виртуальной авиации

Полеты на авиасимуляторах
...

Аэропорт UIII

  METAR И TAF ИНФОРМАЦИЯ
METAR FOR UIII
ADDS - METARS form results

(0256 UTC 28 September 2022)
Data provider http://aviationweather.gov/metar/data/
 
METAR text: UIII 280230Z 03002MPS 9999 -SHRA SCT023CB 02/01 Q1005 R30/150055 NOSIG RMK QFE710/0946
Conditions at: UIII (IRKUTSK , RU) observed 0230 UTC 28 September 2022
Temperature: 2.0°C (36°F)
Dewpoint: 1.0°C (34°F) [RH = 93%]
Pressure (altimeter): 29.68 inches Hg (1005.0 mb)
Winds: from the NNE (30 degrees) at 5 MPH (4 knots; 2.1 m/s)
Visibility: 6 or more miles (10+ km)
Ceiling: at least 12,000 feet AGL
Clouds: scattered clouds at 2300 feet AGL
Weather: -SHRA  (light rain showers)

METAR text: UIII 280200Z VRB01MPS 9999 SCT033CB 02/01 Q1005 R12/150055 NOSIG RMK QFE712/0949
Conditions at: UIII (IRKUTSK , RU) observed 0200 UTC 28 September 2022
Temperature: 2.0°C (36°F)
Dewpoint: 1.0°C (34°F) [RH = 93%]
Pressure (altimeter): 29.68 inches Hg (1005.0 mb)
Winds: variable direction winds at 2 MPH (2 knots; 1.0 m/s)
Visibility: 6 or more miles (10+ km)
Ceiling: at least 12,000 feet AGL
Clouds: scattered clouds at 3300 feet AGL
Weather: no significant weather observed at this time

Forecast for: UIII (IRKUTSK , RU)
Text: TAF UIII 280200Z 2803/2903 34005G10MPS 9999 BKN040CB
Forecast period: 0300 UTC 28 September 2022 to 0300 UTC 29 September 2022
Forecast type: FROM: standard forecast or significant change
Winds: from the NNW (340 degrees) at 12 MPH (10 knots; 5.1 m/s)
gusting to 22 MPH (19 knots; 9.8 m/s)
Visibility: 6 or more miles (10+ km)
Ceiling: 4000 feet AGL
Clouds: broken clouds at 4000 feet AGL
Weather: no significant weather forecast for this period
Text: TEMPO 2803/2815 BKN009CB
Forecast period: 0300 to 1500 UTC 28 September 2022
Forecast type: TEMPORARY: The following changes expected for less than half the time period
Visibility: missing
Ceiling: 900 feet AGL
Clouds: broken clouds at 900 feet AGL
Weather: no significant weather forecast for this period

  КАРТА АЭРОПОРТ
  ИНФОРМАЦИЯ О ВПП
ВПП 12 Длина ВПП 10384 ft Ширина ВПП 148 ft
Высота ВПП 1588 ft Порог смещения ВПП 1312 ft Курс ВПП 114
ВПП 30 Длина ВПП 10384 ft Ширина ВПП 148 ft
Высота ВПП 1675 ft Порог смещения ВПП 0 ft Курс ВПП 294
  ЧАСТОТА АЭРОПОРТА
Тип APP Название APP Частота 125.2 MHZ
Тип ATIS Название ATIS Частота 124.85 MHZ
Тип GND Название TAXIING Частота 121.7 MHZ
Тип MISC Название TRANSIT Частота 131.7 MHZ
Тип PMSV Название VOLMET Частота 125.475 MHZ
Тип RDR Название RADAR Частота 119.3 MHZ
Тип TWR Название TWR Частота 118.1 MHZ
  НАВИГАЦИОННЫЕ СРЕДСТВА AIDS
Тип NDB Название Irkutsk Частота 514 KHZ
Тип NDB Название Irkutsk Частота 514 KHZ
Тип VOR-DME Название Irkutsk Частота 112300 KHZ